sensor_id;sensor_type;location;lat;lon;timestamp;P1;durP1;ratioP1;P2;durP2;ratioP2
8665;SDS011;4370;48.916;8.380;2023-07-29T00:00:51;1.83;;;1.20;;
8665;SDS011;4370;48.916;8.380;2023-07-29T00:03:17;1.30;;;1.20;;
8665;SDS011;4370;48.916;8.380;2023-07-29T00:05:43;1.27;;;1.00;;
8665;SDS011;4370;48.916;8.380;2023-07-29T00:08:09;1.90;;;1.40;;
8665;SDS011;4370;48.916;8.380;2023-07-29T00:10:36;2.30;;;1.43;;
8665;SDS011;4370;48.916;8.380;2023-07-29T00:13:07;2.30;;;1.50;;
8665;SDS011;4370;48.916;8.380;2023-07-29T00:15:32;1.30;;;1.20;;
8665;SDS011;4370;48.916;8.380;2023-07-29T00:17:58;1.77;;;1.30;;
8665;SDS011;4370;48.916;8.380;2023-07-29T00:20:23;2.17;;;1.30;;
8665;SDS011;4370;48.916;8.380;2023-07-29T00:22:49;1.30;;;1.20;;
8665;SDS011;4370;48.916;8.380;2023-07-29T00:25:17;2.63;;;1.60;;
8665;SDS011;4370;48.916;8.380;2023-07-29T00:27:44;2.40;;;1.40;;
8665;SDS011;4370;48.916;8.380;2023-07-29T00:30:10;2.00;;;1.80;;
8665;SDS011;4370;48.916;8.380;2023-07-29T00:32:38;1.90;;;1.70;;
8665;SDS011;4370;48.916;8.380;2023-07-29T00:35:04;1.57;;;1.47;;
8665;SDS011;4370;48.916;8.380;2023-07-29T00:37:30;2.13;;;1.50;;
8665;SDS011;4370;48.916;8.380;2023-07-29T00:39:56;2.40;;;1.63;;
8665;SDS011;4370;48.916;8.380;2023-07-29T00:42:22;1.67;;;1.50;;
8665;SDS011;4370;48.916;8.380;2023-07-29T00:44:47;1.80;;;1.60;;
8665;SDS011;4370;48.916;8.380;2023-07-29T00:47:14;1.90;;;1.70;;
8665;SDS011;4370;48.916;8.380;2023-07-29T00:49:42;2.80;;;1.50;;
8665;SDS011;4370;48.916;8.380;2023-07-29T00:52:09;1.50;;;1.40;;
8665;SDS011;4370;48.916;8.380;2023-07-29T00:54:37;1.50;;;1.40;;
8665;SDS011;4370;48.916;8.380;2023-07-29T00:57:06;1.90;;;1.80;;
8665;SDS011;4370;48.916;8.380;2023-07-29T00:59:38;1.63;;;1.53;;
8665;SDS011;4370;48.916;8.380;2023-07-29T01:02:05;2.93;;;1.83;;
8665;SDS011;4370;48.916;8.380;2023-07-29T01:04:31;2.60;;;1.80;;
8665;SDS011;4370;48.916;8.380;2023-07-29T01:12:20;1.90;;;1.70;;
8665;SDS011;4370;48.916;8.380;2023-07-29T01:20:29;1.97;;;1.63;;
8665;SDS011;4370;48.916;8.380;2023-07-29T01:22:58;1.60;;;1.50;;
8665;SDS011;4370;48.916;8.380;2023-07-29T01:25:24;1.70;;;1.60;;
8665;SDS011;4370;48.916;8.380;2023-07-29T01:27:50;1.70;;;1.60;;
8665;SDS011;4370;48.916;8.380;2023-07-29T01:30:16;3.43;;;1.80;;
8665;SDS011;4370;48.916;8.380;2023-07-29T01:32:43;1.97;;;1.80;;
8665;SDS011;4370;48.916;8.380;2023-07-29T01:35:22;2.50;;;1.57;;
8665;SDS011;4370;48.916;8.380;2023-07-29T01:38:03;1.50;;;1.40;;
8665;SDS011;4370;48.916;8.380;2023-07-29T01:40:34;3.10;;;1.53;;
8665;SDS011;4370;48.916;8.380;2023-07-29T01:43:00;4.00;;;2.13;;
8665;SDS011;4370;48.916;8.380;2023-07-29T01:45:27;3.03;;;1.90;;
8665;SDS011;4370;48.916;8.380;2023-07-29T01:47:56;4.33;;;1.80;;
8665;SDS011;4370;48.916;8.380;2023-07-29T01:50:22;1.70;;;1.60;;
8665;SDS011;4370;48.916;8.380;2023-07-29T01:52:47;1.40;;;1.30;;
8665;SDS011;4370;48.916;8.380;2023-07-29T01:55:15;1.50;;;1.40;;
8665;SDS011;4370;48.916;8.380;2023-07-29T01:57:41;1.57;;;1.47;;
8665;SDS011;4370;48.916;8.380;2023-07-29T02:00:09;2.43;;;1.60;;
8665;SDS011;4370;48.916;8.380;2023-07-29T02:02:35;5.00;;;2.13;;
8665;SDS011;4370;48.916;8.380;2023-07-29T02:05:01;1.57;;;1.47;;
8665;SDS011;4370;48.916;8.380;2023-07-29T02:07:27;2.23;;;1.70;;
8665;SDS011;4370;48.916;8.380;2023-07-29T02:09:55;2.37;;;1.50;;
8665;SDS011;4370;48.916;8.380;2023-07-29T02:12:21;1.30;;;1.20;;
8665;SDS011;4370;48.916;8.380;2023-07-29T02:14:49;2.03;;;1.30;;
8665;SDS011;4370;48.916;8.380;2023-07-29T02:17:15;1.77;;;1.60;;
8665;SDS011;4370;48.916;8.380;2023-07-29T02:19:40;1.73;;;1.50;;
8665;SDS011;4370;48.916;8.380;2023-07-29T02:22:06;1.87;;;1.43;;
8665;SDS011;4370;48.916;8.380;2023-07-29T02:24:33;2.73;;;1.57;;
8665;SDS011;4370;48.916;8.380;2023-07-29T02:26:58;2.07;;;1.50;;
8665;SDS011;4370;48.916;8.380;2023-07-29T02:29:24;4.47;;;1.40;;
8665;SDS011;4370;48.916;8.380;2023-07-29T02:31:50;2.53;;;1.60;;
8665;SDS011;4370;48.916;8.380;2023-07-29T02:34:17;1.80;;;1.40;;
8665;SDS011;4370;48.916;8.380;2023-07-29T02:36:42;2.40;;;1.40;;
8665;SDS011;4370;48.916;8.380;2023-07-29T02:39:08;6.30;;;2.03;;
8665;SDS011;4370;48.916;8.380;2023-07-29T02:41:33;5.77;;;2.07;;
8665;SDS011;4370;48.916;8.380;2023-07-29T02:44:01;3.20;;;1.83;;
8665;SDS011;4370;48.916;8.380;2023-07-29T02:46:31;1.93;;;1.73;;
8665;SDS011;4370;48.916;8.380;2023-07-29T02:48:56;2.27;;;1.73;;
8665;SDS011;4370;48.916;8.380;2023-07-29T02:51:21;1.90;;;1.80;;
8665;SDS011;4370;48.916;8.380;2023-07-29T02:53:47;1.70;;;1.60;;
8665;SDS011;4370;48.916;8.380;2023-07-29T02:56:13;1.90;;;1.70;;
8665;SDS011;4370;48.916;8.380;2023-07-29T02:58:38;1.60;;;1.50;;
8665;SDS011;4370;48.916;8.380;2023-07-29T03:01:05;2.33;;;1.70;;
8665;SDS011;4370;48.916;8.380;2023-07-29T03:03:35;2.30;;;1.73;;
8665;SDS011;4370;48.916;8.380;2023-07-29T03:06:05;1.50;;;1.40;;
8665;SDS011;4370;48.916;8.380;2023-07-29T03:08:35;1.70;;;1.60;;
8665;SDS011;4370;48.916;8.380;2023-07-29T03:11:07;1.60;;;1.50;;
8665;SDS011;4370;48.916;8.380;2023-07-29T03:13:38;2.23;;;2.03;;
8665;SDS011;4370;48.916;8.380;2023-07-29T03:16:04;2.47;;;1.80;;
8665;SDS011;4370;48.916;8.380;2023-07-29T03:18:31;1.93;;;1.73;;
8665;SDS011;4370;48.916;8.380;2023-07-29T03:20:59;3.07;;;1.57;;
8665;SDS011;4370;48.916;8.380;2023-07-29T03:23:25;2.83;;;1.70;;
8665;SDS011;4370;48.916;8.380;2023-07-29T03:25:55;4.10;;;1.70;;
8665;SDS011;4370;48.916;8.380;2023-07-29T03:28:26;1.43;;;1.33;;
8665;SDS011;4370;48.916;8.380;2023-07-29T03:30:53;3.73;;;1.70;;
8665;SDS011;4370;48.916;8.380;2023-07-29T03:33:22;1.80;;;1.60;;
8665;SDS011;4370;48.916;8.380;2023-07-29T03:35:49;1.70;;;1.60;;
8665;SDS011;4370;48.916;8.380;2023-07-29T03:38:14;2.10;;;1.60;;
8665;SDS011;4370;48.916;8.380;2023-07-29T03:40:41;4.87;;;1.90;;
8665;SDS011;4370;48.916;8.380;2023-07-29T03:43:07;1.70;;;1.60;;
8665;SDS011;4370;48.916;8.380;2023-07-29T03:45:33;4.03;;;1.70;;
8665;SDS011;4370;48.916;8.380;2023-07-29T03:48:00;2.80;;;1.50;;
8665;SDS011;4370;48.916;8.380;2023-07-29T03:50:26;1.77;;;1.57;;
8665;SDS011;4370;48.916;8.380;2023-07-29T03:52:54;3.03;;;1.70;;
8665;SDS011;4370;48.916;8.380;2023-07-29T03:55:20;3.50;;;2.00;;
8665;SDS011;4370;48.916;8.380;2023-07-29T03:57:45;5.80;;;2.23;;
8665;SDS011;4370;48.916;8.380;2023-07-29T04:00:14;4.50;;;1.90;;
8665;SDS011;4370;48.916;8.380;2023-07-29T04:02:41;3.27;;;1.80;;
8665;SDS011;4370;48.916;8.380;2023-07-29T04:05:07;8.37;;;2.10;;
8665;SDS011;4370;48.916;8.380;2023-07-29T04:07:33;3.97;;;1.80;;
8665;SDS011;4370;48.916;8.380;2023-07-29T04:09:59;2.53;;;1.73;;
8665;SDS011;4370;48.916;8.380;2023-07-29T04:12:25;2.27;;;2.00;;
8665;SDS011;4370;48.916;8.380;2023-07-29T04:14:51;3.83;;;1.70;;
8665;SDS011;4370;48.916;8.380;2023-07-29T04:17:17;2.17;;;1.50;;
8665;SDS011;4370;48.916;8.380;2023-07-29T04:19:42;1.80;;;1.70;;
8665;SDS011;4370;48.916;8.380;2023-07-29T04:22:08;3.93;;;1.53;;
8665;SDS011;4370;48.916;8.380;2023-07-29T04:24:36;1.70;;;1.60;;
8665;SDS011;4370;48.916;8.380;2023-07-29T04:27:06;1.90;;;1.80;;
8665;SDS011;4370;48.916;8.380;2023-07-29T04:29:32;2.20;;;1.67;;
8665;SDS011;4370;48.916;8.380;2023-07-29T04:31:58;1.83;;;1.73;;
8665;SDS011;4370;48.916;8.380;2023-07-29T04:34:27;2.10;;;1.90;;
8665;SDS011;4370;48.916;8.380;2023-07-29T04:36:53;1.90;;;1.70;;
8665;SDS011;4370;48.916;8.380;2023-07-29T04:39:18;2.00;;;1.67;;
8665;SDS011;4370;48.916;8.380;2023-07-29T04:41:44;1.70;;;1.60;;
8665;SDS011;4370;48.916;8.380;2023-07-29T04:44:10;2.33;;;1.70;;
8665;SDS011;4370;48.916;8.380;2023-07-29T04:46:36;2.13;;;1.57;;
8665;SDS011;4370;48.916;8.380;2023-07-29T04:49:01;1.80;;;1.70;;
8665;SDS011;4370;48.916;8.380;2023-07-29T04:51:28;2.67;;;1.53;;
8665;SDS011;4370;48.916;8.380;2023-07-29T04:53:53;1.97;;;1.57;;
8665;SDS011;4370;48.916;8.380;2023-07-29T04:56:19;1.90;;;1.70;;
8665;SDS011;4370;48.916;8.380;2023-07-29T04:58:44;2.53;;;1.70;;
8665;SDS011;4370;48.916;8.380;2023-07-29T05:01:11;4.23;;;1.70;;
8665;SDS011;4370;48.916;8.380;2023-07-29T05:03:36;2.70;;;1.90;;
8665;SDS011;4370;48.916;8.380;2023-07-29T05:06:04;1.57;;;1.40;;
8665;SDS011;4370;48.916;8.380;2023-07-29T05:08:31;1.50;;;1.40;;
8665;SDS011;4370;48.916;8.380;2023-07-29T05:10:56;1.80;;;1.63;;
8665;SDS011;4370;48.916;8.380;2023-07-29T05:13:22;2.00;;;1.80;;
8665;SDS011;4370;48.916;8.380;2023-07-29T05:15:49;4.17;;;1.70;;
8665;SDS011;4370;48.916;8.380;2023-07-29T05:18:15;1.50;;;1.40;;
8665;SDS011;4370;48.916;8.380;2023-07-29T05:20:41;1.60;;;1.50;;
8665;SDS011;4370;48.916;8.380;2023-07-29T05:23:09;2.17;;;1.40;;
8665;SDS011;4370;48.916;8.380;2023-07-29T05:25:35;1.50;;;1.40;;
8665;SDS011;4370;48.916;8.380;2023-07-29T05:28:01;1.70;;;1.60;;
8665;SDS011;4370;48.916;8.380;2023-07-29T05:30:27;1.70;;;1.60;;
8665;SDS011;4370;48.916;8.380;2023-07-29T05:32:56;3.30;;;1.50;;
8665;SDS011;4370;48.916;8.380;2023-07-29T05:35:22;2.07;;;1.63;;
8665;SDS011;4370;48.916;8.380;2023-07-29T05:37:49;2.07;;;1.43;;
8665;SDS011;4370;48.916;8.380;2023-07-29T05:40:15;1.90;;;1.47;;
8665;SDS011;4370;48.916;8.380;2023-07-29T05:42:40;1.50;;;1.40;;
8665;SDS011;4370;48.916;8.380;2023-07-29T05:45:06;2.17;;;1.60;;
8665;SDS011;4370;48.916;8.380;2023-07-29T05:47:32;2.07;;;1.70;;
8665;SDS011;4370;48.916;8.380;2023-07-29T05:49:58;2.63;;;1.80;;
8665;SDS011;4370;48.916;8.380;2023-07-29T05:52:26;1.80;;;1.40;;
8665;SDS011;4370;48.916;8.380;2023-07-29T05:54:52;2.97;;;1.73;;
8665;SDS011;4370;48.916;8.380;2023-07-29T05:57:17;2.50;;;1.60;;
8665;SDS011;4370;48.916;8.380;2023-07-29T05:59:43;1.77;;;1.67;;
8665;SDS011;4370;48.916;8.380;2023-07-29T06:02:08;3.37;;;1.87;;
8665;SDS011;4370;48.916;8.380;2023-07-29T06:04:34;1.80;;;1.70;;
8665;SDS011;4370;48.916;8.380;2023-07-29T06:07:00;2.03;;;1.50;;
8665;SDS011;4370;48.916;8.380;2023-07-29T06:09:25;1.60;;;1.50;;
8665;SDS011;4370;48.916;8.380;2023-07-29T06:11:51;2.37;;;1.90;;
8665;SDS011;4370;48.916;8.380;2023-07-29T06:14:16;2.47;;;1.70;;
8665;SDS011;4370;48.916;8.380;2023-07-29T06:16:42;2.87;;;1.63;;
8665;SDS011;4370;48.916;8.380;2023-07-29T06:19:09;1.77;;;1.67;;
8665;SDS011;4370;48.916;8.380;2023-07-29T06:21:34;1.73;;;1.63;;
8665;SDS011;4370;48.916;8.380;2023-07-29T06:24:00;4.03;;;1.90;;
8665;SDS011;4370;48.916;8.380;2023-07-29T06:26:26;2.57;;;1.77;;
8665;SDS011;4370;48.916;8.380;2023-07-29T06:28:52;2.43;;;1.80;;
8665;SDS011;4370;48.916;8.380;2023-07-29T06:31:17;3.70;;;2.60;;
8665;SDS011;4370;48.916;8.380;2023-07-29T06:33:45;2.33;;;2.13;;
8665;SDS011;4370;48.916;8.380;2023-07-29T06:36:12;3.13;;;2.40;;
8665;SDS011;4370;48.916;8.380;2023-07-29T06:38:39;3.83;;;2.20;;
8665;SDS011;4370;48.916;8.380;2023-07-29T06:41:05;4.13;;;2.30;;
8665;SDS011;4370;48.916;8.380;2023-07-29T06:43:34;3.17;;;2.70;;
8665;SDS011;4370;48.916;8.380;2023-07-29T06:46:02;3.20;;;2.30;;
8665;SDS011;4370;48.916;8.380;2023-07-29T06:48:28;5.07;;;2.70;;
8665;SDS011;4370;48.916;8.380;2023-07-29T06:50:54;3.07;;;2.43;;
8665;SDS011;4370;48.916;8.380;2023-07-29T06:53:25;2.53;;;2.33;;
8665;SDS011;4370;48.916;8.380;2023-07-29T06:55:51;3.63;;;2.23;;
8665;SDS011;4370;48.916;8.380;2023-07-29T06:58:16;2.43;;;2.23;;
8665;SDS011;4370;48.916;8.380;2023-07-29T07:00:42;3.30;;;2.50;;
8665;SDS011;4370;48.916;8.380;2023-07-29T07:03:10;4.57;;;2.47;;
8665;SDS011;4370;48.916;8.380;2023-07-29T07:05:36;4.53;;;2.37;;
8665;SDS011;4370;48.916;8.380;2023-07-29T07:08:01;2.33;;;2.13;;
8665;SDS011;4370;48.916;8.380;2023-07-29T07:10:27;2.40;;;2.20;;
8665;SDS011;4370;48.916;8.380;2023-07-29T07:12:54;2.37;;;2.17;;
8665;SDS011;4370;48.916;8.380;2023-07-29T07:15:19;2.67;;;2.30;;
8665;SDS011;4370;48.916;8.380;2023-07-29T07:17:45;2.50;;;2.17;;
8665;SDS011;4370;48.916;8.380;2023-07-29T07:20:11;2.20;;;2.00;;
8665;SDS011;4370;48.916;8.380;2023-07-29T07:22:38;2.40;;;2.00;;
8665;SDS011;4370;48.916;8.380;2023-07-29T07:25:04;2.17;;;1.93;;
8665;SDS011;4370;48.916;8.380;2023-07-29T07:27:30;3.13;;;2.10;;
8665;SDS011;4370;48.916;8.380;2023-07-29T07:29:56;1.93;;;1.83;;
8665;SDS011;4370;48.916;8.380;2023-07-29T07:32:22;3.87;;;1.70;;
8665;SDS011;4370;48.916;8.380;2023-07-29T07:34:50;1.73;;;1.57;;
8665;SDS011;4370;48.916;8.380;2023-07-29T07:37:17;2.40;;;1.43;;
8665;SDS011;4370;48.916;8.380;2023-07-29T07:39:42;2.15;;;1.40;;
8665;SDS011;4370;48.916;8.380;2023-07-29T07:42:08;1.95;;;1.50;;
8665;SDS011;4370;48.916;8.380;2023-07-29T07:44:36;2.97;;;1.50;;
8665;SDS011;4370;48.916;8.380;2023-07-29T07:47:01;2.10;;;1.60;;
8665;SDS011;4370;48.916;8.380;2023-07-29T07:49:28;1.20;;;1.10;;
8665;SDS011;4370;48.916;8.380;2023-07-29T07:51:55;1.55;;;1.27;;
8665;SDS011;4370;48.916;8.380;2023-07-29T07:54:21;1.80;;;1.20;;
8665;SDS011;4370;48.916;8.380;2023-07-29T07:56:47;1.50;;;1.20;;
8665;SDS011;4370;48.916;8.380;2023-07-29T07:59:13;1.40;;;1.27;;
8665;SDS011;4370;48.916;8.380;2023-07-29T08:01:41;1.67;;;1.20;;
8665;SDS011;4370;48.916;8.380;2023-07-29T08:04:07;2.20;;;1.30;;
8665;SDS011;4370;48.916;8.380;2023-07-29T08:06:32;1.40;;;1.30;;
8665;SDS011;4370;48.916;8.380;2023-07-29T08:08:59;1.80;;;1.20;;
8665;SDS011;4370;48.916;8.380;2023-07-29T08:11:25;1.23;;;1.10;;
8665;SDS011;4370;48.916;8.380;2023-07-29T08:13:53;1.52;;;1.30;;
8665;SDS011;4370;48.916;8.380;2023-07-29T08:16:19;2.20;;;1.42;;
8665;SDS011;4370;48.916;8.380;2023-07-29T08:18:45;1.30;;;1.20;;
8665;SDS011;4370;48.916;8.380;2023-07-29T08:21:12;1.30;;;1.20;;
8665;SDS011;4370;48.916;8.380;2023-07-29T08:23:38;1.55;;;1.23;;
8665;SDS011;4370;48.916;8.380;2023-07-29T08:26:04;2.15;;;1.20;;
8665;SDS011;4370;48.916;8.380;2023-07-29T08:28:31;1.38;;;1.27;;
8665;SDS011;4370;48.916;8.380;2023-07-29T08:30:59;2.50;;;1.20;;
8665;SDS011;4370;48.916;8.380;2023-07-29T08:33:25;1.63;;;1.40;;
8665;SDS011;4370;48.916;8.380;2023-07-29T08:35:51;2.72;;;1.17;;
8665;SDS011;4370;48.916;8.380;2023-07-29T08:38:16;1.58;;;1.30;;
8665;SDS011;4370;48.916;8.380;2023-07-29T08:40:45;2.10;;;1.40;;
8665;SDS011;4370;48.916;8.380;2023-07-29T08:43:18;1.30;;;1.20;;
8665;SDS011;4370;48.916;8.380;2023-07-29T08:45:46;1.25;;;1.17;;
8665;SDS011;4370;48.916;8.380;2023-07-29T08:48:11;5.28;;;1.88;;
8665;SDS011;4370;48.916;8.380;2023-07-29T08:50:42;3.00;;;1.70;;
8665;SDS011;4370;48.916;8.380;2023-07-29T08:53:10;4.90;;;1.90;;
8665;SDS011;4370;48.916;8.380;2023-07-29T08:55:36;4.40;;;1.77;;
8665;SDS011;4370;48.916;8.380;2023-07-29T08:58:02;1.90;;;1.57;;
8665;SDS011;4370;48.916;8.380;2023-07-29T09:00:28;2.60;;;1.63;;
8665;SDS011;4370;48.916;8.380;2023-07-29T09:02:54;2.50;;;1.70;;
8665;SDS011;4370;48.916;8.380;2023-07-29T09:05:21;2.47;;;1.70;;
8665;SDS011;4370;48.916;8.380;2023-07-29T09:07:46;5.43;;;2.10;;
8665;SDS011;4370;48.916;8.380;2023-07-29T09:10:15;2.83;;;1.90;;
8665;SDS011;4370;48.916;8.380;2023-07-29T09:12:41;4.50;;;2.13;;
8665;SDS011;4370;48.916;8.380;2023-07-29T09:15:08;1.80;;;1.70;;
8665;SDS011;4370;48.916;8.380;2023-07-29T09:17:34;1.60;;;1.50;;
8665;SDS011;4370;48.916;8.380;2023-07-29T09:20:00;4.30;;;1.80;;
8665;SDS011;4370;48.916;8.380;2023-07-29T09:22:26;2.03;;;1.70;;
8665;SDS011;4370;48.916;8.380;2023-07-29T09:24:52;2.57;;;1.80;;
8665;SDS011;4370;48.916;8.380;2023-07-29T09:27:25;3.93;;;1.73;;
8665;SDS011;4370;48.916;8.380;2023-07-29T09:29:55;2.23;;;1.57;;
8665;SDS011;4370;48.916;8.380;2023-07-29T09:32:21;2.47;;;1.77;;
8665;SDS011;4370;48.916;8.380;2023-07-29T09:34:48;1.80;;;1.70;;
8665;SDS011;4370;48.916;8.380;2023-07-29T09:37:17;1.60;;;1.50;;
8665;SDS011;4370;48.916;8.380;2023-07-29T09:39:47;1.80;;;1.33;;
8665;SDS011;4370;48.916;8.380;2023-07-29T09:42:17;1.87;;;1.60;;
8665;SDS011;4370;48.916;8.380;2023-07-29T09:44:50;1.83;;;1.50;;
8665;SDS011;4370;48.916;8.380;2023-07-29T09:47:23;2.33;;;1.70;;
8665;SDS011;4370;48.916;8.380;2023-07-29T09:49:51;2.08;;;1.20;;
8665;SDS011;4370;48.916;8.380;2023-07-29T09:52:17;1.27;;;1.17;;
8665;SDS011;4370;48.916;8.380;2023-07-29T09:54:44;2.42;;;1.15;;
8665;SDS011;4370;48.916;8.380;2023-07-29T09:57:13;1.75;;;1.10;;
8665;SDS011;4370;48.916;8.380;2023-07-29T09:59:41;2.05;;;1.40;;
8665;SDS011;4370;48.916;8.380;2023-07-29T10:02:09;2.25;;;1.30;;
8665;SDS011;4370;48.916;8.380;2023-07-29T10:04:44;1.20;;;1.10;;
8665;SDS011;4370;48.916;8.380;2023-07-29T10:07:11;2.83;;;1.30;;
8665;SDS011;4370;48.916;8.380;2023-07-29T10:09:38;2.38;;;1.15;;
8665;SDS011;4370;48.916;8.380;2023-07-29T10:12:05;1.58;;;1.17;;
8665;SDS011;4370;48.916;8.380;2023-07-29T10:14:32;2.20;;;1.20;;
8665;SDS011;4370;48.916;8.380;2023-07-29T10:16:59;2.50;;;1.30;;
8665;SDS011;4370;48.916;8.380;2023-07-29T10:19:25;1.58;;;1.33;;
8665;SDS011;4370;48.916;8.380;2023-07-29T10:21:52;1.98;;;1.30;;
8665;SDS011;4370;48.916;8.380;2023-07-29T10:24:22;1.20;;;1.10;;
8665;SDS011;4370;48.916;8.380;2023-07-29T10:26:57;2.75;;;1.25;;
8665;SDS011;4370;48.916;8.380;2023-07-29T10:29:23;2.85;;;1.30;;
8665;SDS011;4370;48.916;8.380;2023-07-29T10:31:49;2.20;;;1.35;;
8665;SDS011;4370;48.916;8.380;2023-07-29T10:34:21;1.27;;;1.10;;
8665;SDS011;4370;48.916;8.380;2023-07-29T10:36:48;1.45;;;1.15;;
8665;SDS011;4370;48.916;8.380;2023-07-29T10:39:14;1.92;;;1.30;;
8665;SDS011;4370;48.916;8.380;2023-07-29T10:47:18;1.20;;;1.10;;
8665;SDS011;4370;48.916;8.380;2023-07-29T10:49:44;1.73;;;1.33;;
8665;SDS011;4370;48.916;8.380;2023-07-29T10:55:00;1.00;;;0.90;;
8665;SDS011;4370;48.916;8.380;2023-07-29T10:57:34;1.10;;;1.00;;
8665;SDS011;4370;48.916;8.380;2023-07-29T11:00:01;1.25;;;1.00;;
8665;SDS011;4370;48.916;8.380;2023-07-29T11:02:30;3.45;;;1.17;;
8665;SDS011;4370;48.916;8.380;2023-07-29T11:04:57;0.95;;;0.90;;
8665;SDS011;4370;48.916;8.380;2023-07-29T11:07:25;1.35;;;1.05;;
8665;SDS011;4370;48.916;8.380;2023-07-29T11:09:58;1.73;;;1.30;;
8665;SDS011;4370;48.916;8.380;2023-07-29T11:15:19;2.65;;;1.23;;
8665;SDS011;4370;48.916;8.380;2023-07-29T11:17:55;1.30;;;1.20;;
8665;SDS011;4370;48.916;8.380;2023-07-29T11:20:23;1.77;;;1.30;;
8665;SDS011;4370;48.916;8.380;2023-07-29T11:22:50;1.85;;;1.30;;
8665;SDS011;4370;48.916;8.380;2023-07-29T11:25:17;1.65;;;1.27;;
8665;SDS011;4370;48.916;8.380;2023-07-29T11:27:44;1.63;;;1.30;;
8665;SDS011;4370;48.916;8.380;2023-07-29T11:30:10;3.17;;;1.40;;
8665;SDS011;4370;48.916;8.380;2023-07-29T11:32:38;1.40;;;1.30;;
8665;SDS011;4370;48.916;8.380;2023-07-29T11:35:06;3.75;;;1.40;;
8665;SDS011;4370;48.916;8.380;2023-07-29T11:37:39;1.88;;;1.67;;
8665;SDS011;4370;48.916;8.380;2023-07-29T11:40:05;1.25;;;1.15;;
8665;SDS011;4370;48.916;8.380;2023-07-29T11:42:34;2.15;;;1.45;;
8665;SDS011;4370;48.916;8.380;2023-07-29T11:45:03;1.83;;;1.30;;
8665;SDS011;4370;48.916;8.380;2023-07-29T11:47:31;4.80;;;1.50;;
8665;SDS011;4370;48.916;8.380;2023-07-29T11:50:01;1.50;;;1.30;;
8665;SDS011;4370;48.916;8.380;2023-07-29T11:52:27;3.65;;;1.52;;
8665;SDS011;4370;48.916;8.380;2023-07-29T11:54:55;1.67;;;1.40;;
8665;SDS011;4370;48.916;8.380;2023-07-29T11:57:21;2.13;;;1.70;;
8665;SDS011;4370;48.916;8.380;2023-07-29T11:59:50;3.97;;;1.40;;
8665;SDS011;4370;48.916;8.380;2023-07-29T12:02:16;1.60;;;1.50;;
8665;SDS011;4370;48.916;8.380;2023-07-29T12:04:44;2.22;;;1.70;;
8665;SDS011;4370;48.916;8.380;2023-07-29T12:07:11;1.92;;;1.73;;
8665;SDS011;4370;48.916;8.380;2023-07-29T12:09:37;2.95;;;1.60;;
8665;SDS011;4370;48.916;8.380;2023-07-29T12:12:05;2.78;;;1.70;;
8665;SDS011;4370;48.916;8.380;2023-07-29T12:14:33;2.05;;;1.48;;
8665;SDS011;4370;48.916;8.380;2023-07-29T12:17:03;1.60;;;1.50;;
8665;SDS011;4370;48.916;8.380;2023-07-29T12:22:03;3.45;;;1.60;;
8665;SDS011;4370;48.916;8.380;2023-07-29T12:24:30;1.60;;;1.30;;
8665;SDS011;4370;48.916;8.380;2023-07-29T12:26:57;1.45;;;1.35;;
8665;SDS011;4370;48.916;8.380;2023-07-29T12:29:22;1.92;;;1.48;;
8665;SDS011;4370;48.916;8.380;2023-07-29T12:31:48;4.40;;;1.73;;
8665;SDS011;4370;48.916;8.380;2023-07-29T12:34:21;3.45;;;2.00;;
8665;SDS011;4370;48.916;8.380;2023-07-29T12:36:48;3.83;;;1.60;;
8665;SDS011;4370;48.916;8.380;2023-07-29T12:39:22;1.80;;;1.70;;
8665;SDS011;4370;48.916;8.380;2023-07-29T12:41:55;1.70;;;1.60;;
8665;SDS011;4370;48.916;8.380;2023-07-29T12:44:23;1.70;;;1.50;;
8665;SDS011;4370;48.916;8.380;2023-07-29T12:46:51;1.70;;;1.60;;
8665;SDS011;4370;48.916;8.380;2023-07-29T12:49:18;1.70;;;1.40;;
8665;SDS011;4370;48.916;8.380;2023-07-29T12:51:45;1.63;;;1.52;;
8665;SDS011;4370;48.916;8.380;2023-07-29T12:54:10;1.58;;;1.48;;
8665;SDS011;4370;48.916;8.380;2023-07-29T12:56:36;1.60;;;1.50;;
8665;SDS011;4370;48.916;8.380;2023-07-29T12:59:02;1.58;;;1.48;;
8665;SDS011;4370;48.916;8.380;2023-07-29T13:01:28;2.42;;;1.67;;
8665;SDS011;4370;48.916;8.380;2023-07-29T13:03:55;8.52;;;3.42;;
8665;SDS011;4370;48.916;8.380;2023-07-29T13:06:23;13.65;;;4.50;;
8665;SDS011;4370;48.916;8.380;2023-07-29T13:08:50;8.88;;;3.42;;
8665;SDS011;4370;48.916;8.380;2023-07-29T13:11:16;4.88;;;2.30;;
8665;SDS011;4370;48.916;8.380;2023-07-29T13:13:41;3.70;;;2.40;;
8665;SDS011;4370;48.916;8.380;2023-07-29T13:16:08;3.83;;;1.70;;
8665;SDS011;4370;48.916;8.380;2023-07-29T13:18:36;1.70;;;1.60;;
8665;SDS011;4370;48.916;8.380;2023-07-29T13:21:03;1.80;;;1.50;;
8665;SDS011;4370;48.916;8.380;2023-07-29T13:23:32;1.85;;;1.70;;
8665;SDS011;4370;48.916;8.380;2023-07-29T13:26:01;1.52;;;1.42;;
8665;SDS011;4370;48.916;8.380;2023-07-29T13:28:27;1.92;;;1.70;;
8665;SDS011;4370;48.916;8.380;2023-07-29T13:30:53;2.58;;;1.63;;
8665;SDS011;4370;48.916;8.380;2023-07-29T13:33:21;1.50;;;1.40;;
8665;SDS011;4370;48.916;8.380;2023-07-29T13:35:48;1.80;;;1.70;;
8665;SDS011;4370;48.916;8.380;2023-07-29T13:38:14;2.08;;;1.65;;
8665;SDS011;4370;48.916;8.380;2023-07-29T13:40:39;2.13;;;1.80;;
8665;SDS011;4370;48.916;8.380;2023-07-29T13:43:05;2.00;;;1.50;;
8665;SDS011;4370;48.916;8.380;2023-07-29T13:45:31;2.60;;;1.48;;
8665;SDS011;4370;48.916;8.380;2023-07-29T13:47:56;1.85;;;1.70;;
8665;SDS011;4370;48.916;8.380;2023-07-29T13:50:22;3.70;;;1.55;;
8665;SDS011;4370;48.916;8.380;2023-07-29T13:52:47;2.03;;;1.40;;
8665;SDS011;4370;48.916;8.380;2023-07-29T13:55:13;1.90;;;1.70;;
8665;SDS011;4370;48.916;8.380;2023-07-29T13:57:38;2.40;;;1.70;;
8665;SDS011;4370;48.916;8.380;2023-07-29T14:00:07;2.47;;;1.60;;
8665;SDS011;4370;48.916;8.380;2023-07-29T14:02:33;1.75;;;1.50;;
8665;SDS011;4370;48.916;8.380;2023-07-29T14:04:59;1.90;;;1.70;;
8665;SDS011;4370;48.916;8.380;2023-07-29T14:07:25;2.17;;;1.90;;
8665;SDS011;4370;48.916;8.380;2023-07-29T14:09:51;1.95;;;1.83;;
8665;SDS011;4370;48.916;8.380;2023-07-29T14:12:17;4.13;;;1.50;;
8665;SDS011;4370;48.916;8.380;2023-07-29T14:14:42;1.60;;;1.50;;
8665;SDS011;4370;48.916;8.380;2023-07-29T14:17:08;1.70;;;1.35;;
8665;SDS011;4370;48.916;8.380;2023-07-29T14:19:34;1.77;;;1.67;;
8665;SDS011;4370;48.916;8.380;2023-07-29T14:22:01;3.10;;;1.60;;
8665;SDS011;4370;48.916;8.380;2023-07-29T14:24:26;2.65;;;1.92;;
8665;SDS011;4370;48.916;8.380;2023-07-29T14:26:52;3.47;;;1.70;;
8665;SDS011;4370;48.916;8.380;2023-07-29T14:29:19;2.03;;;1.85;;
8665;SDS011;4370;48.916;8.380;2023-07-29T14:31:45;1.88;;;1.73;;
8665;SDS011;4370;48.916;8.380;2023-07-29T14:34:13;1.80;;;1.70;;
8665;SDS011;4370;48.916;8.380;2023-07-29T14:36:38;1.60;;;1.50;;
8665;SDS011;4370;48.916;8.380;2023-07-29T14:39:04;3.00;;;1.80;;
8665;SDS011;4370;48.916;8.380;2023-07-29T14:41:30;2.15;;;1.75;;
8665;SDS011;4370;48.916;8.380;2023-07-29T14:43:58;2.30;;;1.75;;
8665;SDS011;4370;48.916;8.380;2023-07-29T14:46:25;2.47;;;2.00;;
8665;SDS011;4370;48.916;8.380;2023-07-29T14:48:50;2.25;;;2.00;;
8665;SDS011;4370;48.916;8.380;2023-07-29T14:51:17;2.00;;;1.80;;
8665;SDS011;4370;48.916;8.380;2023-07-29T14:53:42;3.42;;;2.00;;
8665;SDS011;4370;48.916;8.380;2023-07-29T14:56:09;2.22;;;1.88;;
8665;SDS011;4370;48.916;8.380;2023-07-29T14:58:34;2.70;;;1.83;;
8665;SDS011;4370;48.916;8.380;2023-07-29T15:01:00;2.05;;;1.92;;
8665;SDS011;4370;48.916;8.380;2023-07-29T15:03:25;3.13;;;2.03;;
8665;SDS011;4370;48.916;8.380;2023-07-29T15:05:54;1.95;;;1.75;;
8665;SDS011;4370;48.916;8.380;2023-07-29T15:08:19;2.38;;;1.92;;
8665;SDS011;4370;48.916;8.380;2023-07-29T15:10:47;1.90;;;1.70;;
8665;SDS011;4370;48.916;8.380;2023-07-29T15:13:14;2.80;;;2.00;;
8665;SDS011;4370;48.916;8.380;2023-07-29T15:15:41;1.98;;;1.85;;
8665;SDS011;4370;48.916;8.380;2023-07-29T15:18:07;2.40;;;1.92;;
8665;SDS011;4370;48.916;8.380;2023-07-29T15:20:33;3.10;;;2.10;;
8665;SDS011;4370;48.916;8.380;2023-07-29T15:22:58;1.80;;;1.70;;
8665;SDS011;4370;48.916;8.380;2023-07-29T15:25:24;2.95;;;1.98;;
8665;SDS011;4370;48.916;8.380;2023-07-29T15:27:49;2.10;;;1.90;;
8665;SDS011;4370;48.916;8.380;2023-07-29T15:30:16;2.25;;;2.00;;
8665;SDS011;4370;48.916;8.380;2023-07-29T15:32:44;4.80;;;1.95;;
8665;SDS011;4370;48.916;8.380;2023-07-29T15:35:12;2.08;;;1.88;;
8665;SDS011;4370;48.916;8.380;2023-07-29T15:37:38;2.40;;;2.13;;